sensor_id;sensor_type;location;lat;lon;timestamp;P1;durP1;ratioP1;P2;durP2;ratioP2
13708;SDS011;54933;51.908;7.730;2022-09-02T00:01:29;1.13;;;0.50;;
13708;SDS011;54933;51.908;7.730;2022-09-02T00:04:08;1.37;;;0.60;;
13708;SDS011;54933;51.908;7.730;2022-09-02T00:06:37;0.30;;;0.30;;
13708;SDS011;54933;51.908;7.730;2022-09-02T00:09:03;0.57;;;0.40;;
13708;SDS011;54933;51.908;7.730;2022-09-02T00:11:30;0.40;;;0.40;;
13708;SDS011;54933;51.908;7.730;2022-09-02T00:13:57;0.40;;;0.40;;
13708;SDS011;54933;51.908;7.730;2022-09-02T00:16:26;0.77;;;0.60;;
13708;SDS011;54933;51.908;7.730;2022-09-02T00:18:52;0.87;;;0.70;;
13708;SDS011;54933;51.908;7.730;2022-09-02T00:21:18;3.43;;;0.53;;
13708;SDS011;54933;51.908;7.730;2022-09-02T00:23:44;0.60;;;0.60;;
13708;SDS011;54933;51.908;7.730;2022-09-02T00:26:10;0.37;;;0.37;;
13708;SDS011;54933;51.908;7.730;2022-09-02T00:28:37;0.37;;;0.37;;
13708;SDS011;54933;51.908;7.730;2022-09-02T00:31:03;1.07;;;0.40;;
13708;SDS011;54933;51.908;7.730;2022-09-02T00:33:28;0.70;;;0.60;;
13708;SDS011;54933;51.908;7.730;2022-09-02T00:35:56;4.83;;;0.70;;
13708;SDS011;54933;51.908;7.730;2022-09-02T00:38:26;2.27;;;0.50;;
13708;SDS011;54933;51.908;7.730;2022-09-02T00:40:53;0.37;;;0.37;;
13708;SDS011;54933;51.908;7.730;2022-09-02T00:43:22;0.43;;;0.33;;
13708;SDS011;54933;51.908;7.730;2022-09-02T00:45:50;0.47;;;0.43;;
13708;SDS011;54933;51.908;7.730;2022-09-02T00:48:16;0.57;;;0.40;;
13708;SDS011;54933;51.908;7.730;2022-09-02T00:50:42;0.40;;;0.40;;
13708;SDS011;54933;51.908;7.730;2022-09-02T00:53:08;0.83;;;0.47;;
13708;SDS011;54933;51.908;7.730;2022-09-02T00:55:40;0.37;;;0.37;;
13708;SDS011;54933;51.908;7.730;2022-09-02T00:58:25;0.40;;;0.40;;
13708;SDS011;54933;51.908;7.730;2022-09-02T01:00:55;0.50;;;0.50;;
13708;SDS011;54933;51.908;7.730;2022-09-02T01:03:22;0.37;;;0.37;;
13708;SDS011;54933;51.908;7.730;2022-09-02T01:05:49;2.47;;;0.63;;
13708;SDS011;54933;51.908;7.730;2022-09-02T01:08:19;2.20;;;0.50;;
13708;SDS011;54933;51.908;7.730;2022-09-02T01:10:49;1.70;;;0.47;;
13708;SDS011;54933;51.908;7.730;2022-09-02T01:13:18;0.90;;;0.70;;
13708;SDS011;54933;51.908;7.730;2022-09-02T01:15:46;0.47;;;0.47;;
13708;SDS011;54933;51.908;7.730;2022-09-02T01:18:16;0.30;;;0.30;;
13708;SDS011;54933;51.908;7.730;2022-09-02T01:20:44;0.40;;;0.40;;
13708;SDS011;54933;51.908;7.730;2022-09-02T01:23:10;0.40;;;0.40;;
13708;SDS011;54933;51.908;7.730;2022-09-02T01:25:37;1.07;;;0.60;;
13708;SDS011;54933;51.908;7.730;2022-09-02T01:28:04;0.40;;;0.40;;
13708;SDS011;54933;51.908;7.730;2022-09-02T01:30:32;0.40;;;0.40;;
13708;SDS011;54933;51.908;7.730;2022-09-02T01:32:58;0.43;;;0.43;;
13708;SDS011;54933;51.908;7.730;2022-09-02T01:35:24;0.33;;;0.33;;
13708;SDS011;54933;51.908;7.730;2022-09-02T01:37:52;0.50;;;0.47;;
13708;SDS011;54933;51.908;7.730;2022-09-02T01:40:19;0.40;;;0.40;;
13708;SDS011;54933;51.908;7.730;2022-09-02T01:42:44;2.00;;;0.50;;
13708;SDS011;54933;51.908;7.730;2022-09-02T01:45:11;1.70;;;0.40;;
13708;SDS011;54933;51.908;7.730;2022-09-02T01:47:36;0.40;;;0.30;;
13708;SDS011;54933;51.908;7.730;2022-09-02T01:50:03;2.20;;;0.60;;
13708;SDS011;54933;51.908;7.730;2022-09-02T01:52:30;0.67;;;0.67;;
13708;SDS011;54933;51.908;7.730;2022-09-02T01:54:56;1.07;;;0.33;;
13708;SDS011;54933;51.908;7.730;2022-09-02T01:57:22;0.80;;;0.50;;
13708;SDS011;54933;51.908;7.730;2022-09-02T01:59:49;1.90;;;0.60;;
13708;SDS011;54933;51.908;7.730;2022-09-02T02:02:15;0.50;;;0.50;;
13708;SDS011;54933;51.908;7.730;2022-09-02T02:04:42;0.70;;;0.70;;
13708;SDS011;54933;51.908;7.730;2022-09-02T02:07:07;0.30;;;0.30;;
13708;SDS011;54933;51.908;7.730;2022-09-02T02:09:33;0.30;;;0.30;;
13708;SDS011;54933;51.908;7.730;2022-09-02T02:11:58;2.10;;;0.47;;
13708;SDS011;54933;51.908;7.730;2022-09-02T02:14:23;1.67;;;0.50;;
13708;SDS011;54933;51.908;7.730;2022-09-02T02:16:49;0.47;;;0.40;;
13708;SDS011;54933;51.908;7.730;2022-09-02T02:19:15;0.67;;;0.43;;
13708;SDS011;54933;51.908;7.730;2022-09-02T02:21:40;1.90;;;0.30;;
13708;SDS011;54933;51.908;7.730;2022-09-02T02:24:05;0.37;;;0.30;;
13708;SDS011;54933;51.908;7.730;2022-09-02T02:26:32;0.93;;;0.60;;
13708;SDS011;54933;51.908;7.730;2022-09-02T02:28:59;0.40;;;0.40;;
13708;SDS011;54933;51.908;7.730;2022-09-02T02:31:24;0.97;;;0.50;;
13708;SDS011;54933;51.908;7.730;2022-09-02T02:33:50;1.53;;;0.90;;
13708;SDS011;54933;51.908;7.730;2022-09-02T02:36:15;0.50;;;0.50;;
13708;SDS011;54933;51.908;7.730;2022-09-02T02:38:41;0.87;;;0.43;;
13708;SDS011;54933;51.908;7.730;2022-09-02T02:41:08;0.80;;;0.80;;
13708;SDS011;54933;51.908;7.730;2022-09-02T02:43:33;0.87;;;0.50;;
13708;SDS011;54933;51.908;7.730;2022-09-02T02:45:59;0.30;;;0.30;;
13708;SDS011;54933;51.908;7.730;2022-09-02T02:48:25;0.70;;;0.50;;
13708;SDS011;54933;51.908;7.730;2022-09-02T02:50:50;0.73;;;0.50;;
13708;SDS011;54933;51.908;7.730;2022-09-02T02:53:16;0.30;;;0.30;;
13708;SDS011;54933;51.908;7.730;2022-09-02T02:55:42;0.40;;;0.40;;
13708;SDS011;54933;51.908;7.730;2022-09-02T02:58:08;0.57;;;0.57;;
13708;SDS011;54933;51.908;7.730;2022-09-02T03:00:34;0.43;;;0.43;;
13708;SDS011;54933;51.908;7.730;2022-09-02T03:03:03;0.40;;;0.40;;
13708;SDS011;54933;51.908;7.730;2022-09-02T03:05:31;0.97;;;0.40;;
13708;SDS011;54933;51.908;7.730;2022-09-02T03:07:59;1.07;;;0.50;;
13708;SDS011;54933;51.908;7.730;2022-09-02T03:10:25;0.60;;;0.60;;
13708;SDS011;54933;51.908;7.730;2022-09-02T03:12:51;2.20;;;0.60;;
13708;SDS011;54933;51.908;7.730;2022-09-02T03:15:17;0.30;;;0.30;;
13708;SDS011;54933;51.908;7.730;2022-09-02T03:17:44;0.50;;;0.50;;
13708;SDS011;54933;51.908;7.730;2022-09-02T03:20:11;1.93;;;0.53;;
13708;SDS011;54933;51.908;7.730;2022-09-02T03:22:36;0.43;;;0.40;;
13708;SDS011;54933;51.908;7.730;2022-09-02T03:25:04;0.43;;;0.43;;
13708;SDS011;54933;51.908;7.730;2022-09-02T03:27:30;0.47;;;0.47;;
13708;SDS011;54933;51.908;7.730;2022-09-02T03:29:55;1.20;;;0.57;;
13708;SDS011;54933;51.908;7.730;2022-09-02T03:32:21;0.63;;;0.63;;
13708;SDS011;54933;51.908;7.730;2022-09-02T03:34:46;0.47;;;0.47;;
13708;SDS011;54933;51.908;7.730;2022-09-02T03:37:11;2.20;;;0.40;;
13708;SDS011;54933;51.908;7.730;2022-09-02T03:39:37;0.70;;;0.67;;
13708;SDS011;54933;51.908;7.730;2022-09-02T03:42:03;0.43;;;0.40;;
13708;SDS011;54933;51.908;7.730;2022-09-02T03:44:29;1.30;;;0.70;;
13708;SDS011;54933;51.908;7.730;2022-09-02T03:46:54;0.40;;;0.40;;
13708;SDS011;54933;51.908;7.730;2022-09-02T03:49:19;0.73;;;0.40;;
13708;SDS011;54933;51.908;7.730;2022-09-02T03:51:44;2.50;;;0.50;;
13708;SDS011;54933;51.908;7.730;2022-09-02T03:54:10;2.33;;;0.50;;
13708;SDS011;54933;51.908;7.730;2022-09-02T03:56:36;1.63;;;0.33;;
13708;SDS011;54933;51.908;7.730;2022-09-02T03:59:01;0.60;;;0.60;;
13708;SDS011;54933;51.908;7.730;2022-09-02T04:01:27;0.40;;;0.40;;
13708;SDS011;54933;51.908;7.730;2022-09-02T04:03:53;0.50;;;0.30;;
13708;SDS011;54933;51.908;7.730;2022-09-02T04:06:19;0.30;;;0.30;;
13708;SDS011;54933;51.908;7.730;2022-09-02T04:08:46;0.50;;;0.50;;
13708;SDS011;54933;51.908;7.730;2022-09-02T04:11:14;0.37;;;0.37;;
13708;SDS011;54933;51.908;7.730;2022-09-02T04:13:41;1.03;;;0.40;;
13708;SDS011;54933;51.908;7.730;2022-09-02T04:16:08;0.40;;;0.40;;
13708;SDS011;54933;51.908;7.730;2022-09-02T04:18:35;0.50;;;0.50;;
13708;SDS011;54933;51.908;7.730;2022-09-02T04:21:00;0.47;;;0.47;;
13708;SDS011;54933;51.908;7.730;2022-09-02T04:23:26;0.40;;;0.40;;
13708;SDS011;54933;51.908;7.730;2022-09-02T04:25:52;1.37;;;0.50;;
13708;SDS011;54933;51.908;7.730;2022-09-02T04:28:18;1.40;;;0.50;;
13708;SDS011;54933;51.908;7.730;2022-09-02T04:30:43;0.37;;;0.37;;
13708;SDS011;54933;51.908;7.730;2022-09-02T04:33:09;2.23;;;0.30;;
13708;SDS011;54933;51.908;7.730;2022-09-02T04:35:38;0.40;;;0.40;;
13708;SDS011;54933;51.908;7.730;2022-09-02T04:38:05;0.80;;;0.60;;
13708;SDS011;54933;51.908;7.730;2022-09-02T04:40:30;0.93;;;0.40;;
13708;SDS011;54933;51.908;7.730;2022-09-02T04:42:56;2.30;;;0.50;;
13708;SDS011;54933;51.908;7.730;2022-09-02T04:45:21;0.50;;;0.50;;
13708;SDS011;54933;51.908;7.730;2022-09-02T04:47:46;0.83;;;0.60;;
13708;SDS011;54933;51.908;7.730;2022-09-02T04:50:12;3.33;;;0.40;;
13708;SDS011;54933;51.908;7.730;2022-09-02T04:52:37;1.60;;;0.40;;
13708;SDS011;54933;51.908;7.730;2022-09-02T04:55:02;0.70;;;0.70;;
13708;SDS011;54933;51.908;7.730;2022-09-02T04:57:29;1.23;;;0.60;;
13708;SDS011;54933;51.908;7.730;2022-09-02T04:59:54;1.60;;;0.60;;
13708;SDS011;54933;51.908;7.730;2022-09-02T05:02:20;0.70;;;0.53;;
13708;SDS011;54933;51.908;7.730;2022-09-02T05:04:47;3.17;;;0.80;;
13708;SDS011;54933;51.908;7.730;2022-09-02T05:07:13;1.90;;;0.63;;
13708;SDS011;54933;51.908;7.730;2022-09-02T05:09:39;0.60;;;0.50;;
13708;SDS011;54933;51.908;7.730;2022-09-02T05:12:05;0.70;;;0.70;;
13708;SDS011;54933;51.908;7.730;2022-09-02T05:14:30;0.77;;;0.50;;
13708;SDS011;54933;51.908;7.730;2022-09-02T05:16:56;1.13;;;0.50;;
13708;SDS011;54933;51.908;7.730;2022-09-02T05:19:24;0.53;;;0.53;;
13708;SDS011;54933;51.908;7.730;2022-09-02T05:21:50;0.67;;;0.50;;
13708;SDS011;54933;51.908;7.730;2022-09-02T05:24:21;1.20;;;0.70;;
13708;SDS011;54933;51.908;7.730;2022-09-02T05:26:47;0.40;;;0.40;;
13708;SDS011;54933;51.908;7.730;2022-09-02T05:29:15;2.00;;;0.70;;
13708;SDS011;54933;51.908;7.730;2022-09-02T05:31:43;0.40;;;0.40;;
13708;SDS011;54933;51.908;7.730;2022-09-02T05:34:08;0.97;;;0.60;;
13708;SDS011;54933;51.908;7.730;2022-09-02T05:36:34;1.60;;;0.77;;
13708;SDS011;54933;51.908;7.730;2022-09-02T05:38:59;1.13;;;0.53;;
13708;SDS011;54933;51.908;7.730;2022-09-02T05:41:25;0.67;;;0.40;;
13708;SDS011;54933;51.908;7.730;2022-09-02T05:43:52;0.43;;;0.43;;
13708;SDS011;54933;51.908;7.730;2022-09-02T05:46:20;0.70;;;0.70;;
13708;SDS011;54933;51.908;7.730;2022-09-02T05:48:47;0.67;;;0.53;;
13708;SDS011;54933;51.908;7.730;2022-09-02T05:51:34;1.27;;;0.50;;
13708;SDS011;54933;51.908;7.730;2022-09-02T05:54:06;0.50;;;0.50;;
13708;SDS011;54933;51.908;7.730;2022-09-02T05:56:38;0.53;;;0.53;;
13708;SDS011;54933;51.908;7.730;2022-09-02T05:59:05;1.33;;;0.60;;
13708;SDS011;54933;51.908;7.730;2022-09-02T06:01:31;0.60;;;0.60;;
13708;SDS011;54933;51.908;7.730;2022-09-02T06:03:57;0.60;;;0.60;;
13708;SDS011;54933;51.908;7.730;2022-09-02T06:06:23;5.93;;;0.90;;
13708;SDS011;54933;51.908;7.730;2022-09-02T06:08:48;0.47;;;0.40;;
13708;SDS011;54933;51.908;7.730;2022-09-02T06:11:15;1.47;;;0.60;;
13708;SDS011;54933;51.908;7.730;2022-09-02T06:13:42;0.63;;;0.63;;
13708;SDS011;54933;51.908;7.730;2022-09-02T06:16:08;0.60;;;0.60;;
13708;SDS011;54933;51.908;7.730;2022-09-02T06:18:53;2.27;;;0.53;;
13708;SDS011;54933;51.908;7.730;2022-09-02T06:21:18;2.83;;;0.80;;
13708;SDS011;54933;51.908;7.730;2022-09-02T06:23:45;1.27;;;0.90;;
13708;SDS011;54933;51.908;7.730;2022-09-02T06:26:11;1.90;;;0.50;;
13708;SDS011;54933;51.908;7.730;2022-09-02T06:28:38;0.90;;;0.60;;
13708;SDS011;54933;51.908;7.730;2022-09-02T06:31:15;0.97;;;0.63;;
13708;SDS011;54933;51.908;7.730;2022-09-02T06:33:44;0.67;;;0.67;;
13708;SDS011;54933;51.908;7.730;2022-09-02T06:36:11;0.63;;;0.60;;
13708;SDS011;54933;51.908;7.730;2022-09-02T06:38:40;0.60;;;0.60;;
13708;SDS011;54933;51.908;7.730;2022-09-02T06:41:11;2.30;;;0.70;;
13708;SDS011;54933;51.908;7.730;2022-09-02T06:43:37;0.60;;;0.60;;
13708;SDS011;54933;51.908;7.730;2022-09-02T06:46:03;0.50;;;0.50;;
13708;SDS011;54933;51.908;7.730;2022-09-02T06:48:29;1.70;;;0.77;;
13708;SDS011;54933;51.908;7.730;2022-09-02T06:50:54;0.70;;;0.70;;
13708;SDS011;54933;51.908;7.730;2022-09-02T06:53:20;3.20;;;0.60;;
13708;SDS011;54933;51.908;7.730;2022-09-02T06:55:45;0.50;;;0.50;;
13708;SDS011;54933;51.908;7.730;2022-09-02T06:58:11;0.60;;;0.60;;
13708;SDS011;54933;51.908;7.730;2022-09-02T07:00:37;1.43;;;0.70;;
13708;SDS011;54933;51.908;7.730;2022-09-02T07:03:05;1.30;;;0.90;;
13708;SDS011;54933;51.908;7.730;2022-09-02T07:06:00;1.40;;;0.60;;
13708;SDS011;54933;51.908;7.730;2022-09-02T07:08:27;0.60;;;0.60;;
13708;SDS011;54933;51.908;7.730;2022-09-02T07:10:53;1.13;;;0.53;;
13708;SDS011;54933;51.908;7.730;2022-09-02T07:13:18;1.80;;;0.70;;
13708;SDS011;54933;51.908;7.730;2022-09-02T07:15:43;0.70;;;0.70;;
13708;SDS011;54933;51.908;7.730;2022-09-02T07:18:09;1.90;;;0.70;;
13708;SDS011;54933;51.908;7.730;2022-09-02T07:20:34;0.63;;;0.60;;
13708;SDS011;54933;51.908;7.730;2022-09-02T07:22:59;0.60;;;0.60;;
13708;SDS011;54933;51.908;7.730;2022-09-02T07:25:25;1.43;;;0.60;;
13708;SDS011;54933;51.908;7.730;2022-09-02T07:27:50;0.77;;;0.77;;
13708;SDS011;54933;51.908;7.730;2022-09-02T07:30:16;2.73;;;0.87;;
13708;SDS011;54933;51.908;7.730;2022-09-02T07:32:42;0.80;;;0.80;;
13708;SDS011;54933;51.908;7.730;2022-09-02T07:35:07;0.80;;;0.60;;
13708;SDS011;54933;51.908;7.730;2022-09-02T07:37:33;0.50;;;0.50;;
13708;SDS011;54933;51.908;7.730;2022-09-02T07:40:00;4.00;;;0.77;;
13708;SDS011;54933;51.908;7.730;2022-09-02T07:42:28;1.10;;;0.63;;
13708;SDS011;54933;51.908;7.730;2022-09-02T07:44:53;0.83;;;0.77;;
13708;SDS011;54933;51.908;7.730;2022-09-02T07:47:18;1.87;;;0.80;;
13708;SDS011;54933;51.908;7.730;2022-09-02T07:49:43;1.90;;;1.37;;
13708;SDS011;54933;51.908;7.730;2022-09-02T07:52:09;2.70;;;0.80;;
13708;SDS011;54933;51.908;7.730;2022-09-02T07:54:34;2.07;;;0.70;;
13708;SDS011;54933;51.908;7.730;2022-09-02T07:56:59;0.77;;;0.70;;
13708;SDS011;54933;51.908;7.730;2022-09-02T07:59:25;1.00;;;0.70;;
13708;SDS011;54933;51.908;7.730;2022-09-02T08:01:50;1.40;;;0.70;;
13708;SDS011;54933;51.908;7.730;2022-09-02T08:04:17;0.80;;;0.80;;
13708;SDS011;54933;51.908;7.730;2022-09-02T08:06:47;0.53;;;0.53;;
13708;SDS011;54933;51.908;7.730;2022-09-02T08:09:12;2.50;;;0.90;;
13708;SDS011;54933;51.908;7.730;2022-09-02T08:11:38;0.87;;;0.70;;
13708;SDS011;54933;51.908;7.730;2022-09-02T08:14:09;0.50;;;0.50;;
13708;SDS011;54933;51.908;7.730;2022-09-02T08:16:38;1.03;;;0.87;;
13708;SDS011;54933;51.908;7.730;2022-09-02T08:19:04;0.87;;;0.70;;
13708;SDS011;54933;51.908;7.730;2022-09-02T08:21:30;0.90;;;0.67;;
13708;SDS011;54933;51.908;7.730;2022-09-02T08:23:56;0.80;;;0.80;;
13708;SDS011;54933;51.908;7.730;2022-09-02T08:26:22;1.00;;;0.60;;
13708;SDS011;54933;51.908;7.730;2022-09-02T08:28:47;1.00;;;0.60;;
13708;SDS011;54933;51.908;7.730;2022-09-02T08:31:13;1.00;;;0.90;;
13708;SDS011;54933;51.908;7.730;2022-09-02T08:33:38;1.33;;;0.80;;
13708;SDS011;54933;51.908;7.730;2022-09-02T08:36:08;2.03;;;0.77;;
13708;SDS011;54933;51.908;7.730;2022-09-02T08:38:35;3.00;;;0.60;;
13708;SDS011;54933;51.908;7.730;2022-09-02T08:41:01;0.63;;;0.50;;
13708;SDS011;54933;51.908;7.730;2022-09-02T08:43:32;2.30;;;0.73;;
13708;SDS011;54933;51.908;7.730;2022-09-02T08:46:04;1.17;;;0.60;;
13708;SDS011;54933;51.908;7.730;2022-09-02T08:51:12;0.80;;;0.60;;
13708;SDS011;54933;51.908;7.730;2022-09-02T08:56:10;1.73;;;0.53;;
13708;SDS011;54933;51.908;7.730;2022-09-02T08:58:46;1.20;;;0.50;;
13708;SDS011;54933;51.908;7.730;2022-09-02T09:04:32;2.27;;;0.80;;
13708;SDS011;54933;51.908;7.730;2022-09-02T09:07:17;1.10;;;0.57;;
13708;SDS011;54933;51.908;7.730;2022-09-02T09:12:56;1.10;;;0.70;;
13708;SDS011;54933;51.908;7.730;2022-09-02T09:15:31;0.93;;;0.80;;
13708;SDS011;54933;51.908;7.730;2022-09-02T09:18:06;0.70;;;0.70;;
13708;SDS011;54933;51.908;7.730;2022-09-02T09:20:40;0.60;;;0.60;;
13708;SDS011;54933;51.908;7.730;2022-09-02T09:25:56;0.80;;;0.70;;
13708;SDS011;54933;51.908;7.730;2022-09-02T09:28:29;2.33;;;0.67;;
13708;SDS011;54933;51.908;7.730;2022-09-02T09:30:55;3.03;;;0.70;;
13708;SDS011;54933;51.908;7.730;2022-09-02T09:33:21;0.63;;;0.63;;
13708;SDS011;54933;51.908;7.730;2022-09-02T09:35:48;2.20;;;0.80;;
13708;SDS011;54933;51.908;7.730;2022-09-02T09:38:16;1.03;;;0.70;;
13708;SDS011;54933;51.908;7.730;2022-09-02T09:43:44;0.60;;;0.60;;
13708;SDS011;54933;51.908;7.730;2022-09-02T09:46:28;0.80;;;0.80;;
13708;SDS011;54933;51.908;7.730;2022-09-02T09:48:58;1.50;;;0.90;;
13708;SDS011;54933;51.908;7.730;2022-09-02T09:51:23;0.80;;;0.60;;
13708;SDS011;54933;51.908;7.730;2022-09-02T09:53:49;1.03;;;0.50;;
13708;SDS011;54933;51.908;7.730;2022-09-02T10:01:18;1.60;;;0.80;;
13708;SDS011;54933;51.908;7.730;2022-09-02T10:08:56;3.13;;;0.80;;
13708;SDS011;54933;51.908;7.730;2022-09-02T10:11:31;1.67;;;0.80;;
13708;SDS011;54933;51.908;7.730;2022-09-02T10:14:05;1.00;;;0.90;;
13708;SDS011;54933;51.908;7.730;2022-09-02T10:16:36;2.30;;;0.90;;
13708;SDS011;54933;51.908;7.730;2022-09-02T10:30:56;0.97;;;0.83;;
13708;SDS011;54933;51.908;7.730;2022-09-02T10:33:41;0.77;;;0.77;;
13708;SDS011;54933;51.908;7.730;2022-09-02T10:36:19;4.43;;;1.10;;
13708;SDS011;54933;51.908;7.730;2022-09-02T10:38:52;3.60;;;0.90;;
13708;SDS011;54933;51.908;7.730;2022-09-02T10:41:28;2.97;;;0.80;;
13708;SDS011;54933;51.908;7.730;2022-09-02T10:47:30;0.77;;;0.70;;
13708;SDS011;54933;51.908;7.730;2022-09-02T10:50:03;0.60;;;0.60;;
13708;SDS011;54933;51.908;7.730;2022-09-02T10:52:48;1.07;;;0.80;;
13708;SDS011;54933;51.908;7.730;2022-09-02T10:58:20;1.10;;;0.80;;
13708;SDS011;54933;51.908;7.730;2022-09-02T11:00:54;2.07;;;0.80;;
13708;SDS011;54933;51.908;7.730;2022-09-02T11:06:14;1.50;;;0.77;;
13708;SDS011;54933;51.908;7.730;2022-09-02T11:08:49;3.20;;;0.90;;
13708;SDS011;54933;51.908;7.730;2022-09-02T11:11:29;2.23;;;0.60;;
13708;SDS011;54933;51.908;7.730;2022-09-02T11:21:59;1.80;;;0.67;;
13708;SDS011;54933;51.908;7.730;2022-09-02T11:27:18;0.73;;;0.73;;
13708;SDS011;54933;51.908;7.730;2022-09-02T11:29:58;1.10;;;1.10;;
13708;SDS011;54933;51.908;7.730;2022-09-02T11:32:40;0.60;;;0.60;;
13708;SDS011;54933;51.908;7.730;2022-09-02T11:38:27;1.20;;;0.60;;
13708;SDS011;54933;51.908;7.730;2022-09-02T11:43:55;1.07;;;0.90;;
13708;SDS011;54933;51.908;7.730;2022-09-02T11:46:45;1.00;;;0.70;;
13708;SDS011;54933;51.908;7.730;2022-09-02T11:49:34;0.90;;;0.73;;
13708;SDS011;54933;51.908;7.730;2022-09-02T11:52:39;1.33;;;0.80;;
13708;SDS011;54933;51.908;7.730;2022-09-02T11:55:53;2.23;;;0.90;;
13708;SDS011;54933;51.908;7.730;2022-09-02T11:58:05;0.93;;;0.87;;
13708;SDS011;54933;51.908;7.730;2022-09-02T12:03:20;1.00;;;1.00;;
13708;SDS011;54933;51.908;7.730;2022-09-02T12:05:48;0.80;;;0.80;;
13708;SDS011;54933;51.908;7.730;2022-09-02T12:11:03;3.30;;;0.60;;
13708;SDS011;54933;51.908;7.730;2022-09-02T12:21:18;2.00;;;0.80;;
13708;SDS011;54933;51.908;7.730;2022-09-02T12:26:13;1.00;;;0.90;;
13708;SDS011;54933;51.908;7.730;2022-09-02T12:28:44;1.97;;;1.00;;
13708;SDS011;54933;51.908;7.730;2022-09-02T12:33:43;0.90;;;0.80;;
13708;SDS011;54933;51.908;7.730;2022-09-02T12:39:43;1.37;;;1.20;;
13708;SDS011;54933;51.908;7.730;2022-09-02T12:52:48;0.97;;;0.90;;
13708;SDS011;54933;51.908;7.730;2022-09-02T12:55:27;5.93;;;0.97;;
13708;SDS011;54933;51.908;7.730;2022-09-02T12:58:09;3.30;;;0.90;;
13708;SDS011;54933;51.908;7.730;2022-09-02T13:00:48;1.60;;;0.93;;
13708;SDS011;54933;51.908;7.730;2022-09-02T13:06:31;0.93;;;0.90;;
13708;SDS011;54933;51.908;7.730;2022-09-02T13:15:04;0.77;;;0.77;;
13708;SDS011;54933;51.908;7.730;2022-09-02T13:17:44;1.23;;;0.90;;
13708;SDS011;54933;51.908;7.730;2022-09-02T13:26:25;2.27;;;1.10;;
13708;SDS011;54933;51.908;7.730;2022-09-02T13:29:20;1.50;;;1.00;;
13708;SDS011;54933;51.908;7.730;2022-09-02T13:32:14;0.70;;;0.70;;
13708;SDS011;54933;51.908;7.730;2022-09-02T13:34:47;5.93;;;0.87;;
13708;SDS011;54933;51.908;7.730;2022-09-02T13:40:23;1.67;;;0.90;;
13708;SDS011;54933;51.908;7.730;2022-09-02T13:42:51;1.20;;;0.67;;
13708;SDS011;54933;51.908;7.730;2022-09-02T13:45:20;0.80;;;0.73;;
13708;SDS011;54933;51.908;7.730;2022-09-02T13:47:53;4.43;;;1.00;;
13708;SDS011;54933;51.908;7.730;2022-09-02T13:50:21;1.03;;;1.03;;
13708;SDS011;54933;51.908;7.730;2022-09-02T13:52:50;1.00;;;1.00;;
13708;SDS011;54933;51.908;7.730;2022-09-02T13:55:18;0.90;;;0.90;;
13708;SDS011;54933;51.908;7.730;2022-09-02T13:57:45;1.03;;;0.63;;
13708;SDS011;54933;51.908;7.730;2022-09-02T14:00:24;1.67;;;0.80;;
13708;SDS011;54933;51.908;7.730;2022-09-02T14:03:09;1.70;;;0.60;;
13708;SDS011;54933;51.908;7.730;2022-09-02T14:05:39;6.10;;;0.80;;
13708;SDS011;54933;51.908;7.730;2022-09-02T14:08:10;5.93;;;1.10;;
13708;SDS011;54933;51.908;7.730;2022-09-02T14:10:37;8.87;;;1.30;;
13708;SDS011;54933;51.908;7.730;2022-09-02T14:13:05;12.10;;;1.33;;
13708;SDS011;54933;51.908;7.730;2022-09-02T14:15:32;4.30;;;1.10;;
13708;SDS011;54933;51.908;7.730;2022-09-02T14:18:11;6.63;;;1.23;;
13708;SDS011;54933;51.908;7.730;2022-09-02T14:20:53;5.20;;;1.20;;
13708;SDS011;54933;51.908;7.730;2022-09-02T14:23:21;6.20;;;1.43;;
13708;SDS011;54933;51.908;7.730;2022-09-02T14:25:49;5.90;;;1.30;;
13708;SDS011;54933;51.908;7.730;2022-09-02T14:28:18;5.50;;;1.10;;
13708;SDS011;54933;51.908;7.730;2022-09-02T14:30:53;4.57;;;1.50;;
13708;SDS011;54933;51.908;7.730;2022-09-02T14:33:27;11.17;;;2.00;;
13708;SDS011;54933;51.908;7.730;2022-09-02T14:38:48;7.07;;;1.33;;
13708;SDS011;54933;51.908;7.730;2022-09-02T14:43:48;12.63;;;1.30;;
13708;SDS011;54933;51.908;7.730;2022-09-02T14:48:49;4.70;;;1.30;;
13708;SDS011;54933;51.908;7.730;2022-09-02T14:51:18;7.53;;;1.50;;
13708;SDS011;54933;51.908;7.730;2022-09-02T14:53:43;7.07;;;1.67;;
13708;SDS011;54933;51.908;7.730;2022-09-02T14:56:09;5.77;;;1.50;;
13708;SDS011;54933;51.908;7.730;2022-09-02T14:58:34;4.47;;;1.30;;
13708;SDS011;54933;51.908;7.730;2022-09-02T15:00:59;5.93;;;1.07;;
13708;SDS011;54933;51.908;7.730;2022-09-02T15:03:25;4.40;;;1.10;;
13708;SDS011;54933;51.908;7.730;2022-09-02T15:05:52;7.17;;;1.50;;
13708;SDS011;54933;51.908;7.730;2022-09-02T15:08:18;5.80;;;1.10;;
13708;SDS011;54933;51.908;7.730;2022-09-02T15:10:43;6.07;;;1.10;;
13708;SDS011;54933;51.908;7.730;2022-09-02T15:13:10;6.43;;;1.60;;
13708;SDS011;54933;51.908;7.730;2022-09-02T15:15:38;2.17;;;1.30;;
13708;SDS011;54933;51.908;7.730;2022-09-02T15:18:03;6.73;;;1.33;;
13708;SDS011;54933;51.908;7.730;2022-09-02T15:20:32;4.77;;;1.03;;
13708;SDS011;54933;51.908;7.730;2022-09-02T15:22:58;4.60;;;1.20;;
13708;SDS011;54933;51.908;7.730;2022-09-02T15:25:23;4.87;;;0.97;;
13708;SDS011;54933;51.908;7.730;2022-09-02T15:27:49;5.80;;;1.20;;
13708;SDS011;54933;51.908;7.730;2022-09-02T15:30:15;8.87;;;1.37;;
13708;SDS011;54933;51.908;7.730;2022-09-02T15:32:40;4.07;;;1.00;;
13708;SDS011;54933;51.908;7.730;2022-09-02T15:35:06;2.80;;;1.03;;
13708;SDS011;54933;51.908;7.730;2022-09-02T15:37:33;3.90;;;1.37;;
13708;SDS011;54933;51.908;7.730;2022-09-02T15:40:01;3.67;;;1.30;;
13708;SDS011;54933;51.908;7.730;2022-09-02T15:42:30;6.53;;;1.00;;
13708;SDS011;54933;51.908;7.730;2022-09-02T15:44:59;1.43;;;0.90;;
13708;SDS011;54933;51.908;7.730;2022-09-02T15:47:26;9.33;;;1.17;;
13708;SDS011;54933;51.908;7.730;2022-09-02T15:49:54;1.60;;;0.93;;
13708;SDS011;54933;51.908;7.730;2022-09-02T15:52:21;4.03;;;0.90;;
13708;SDS011;54933;51.908;7.730;2022-09-02T15:54:46;2.57;;;0.97;;
13708;SDS011;54933;51.908;7.730;2022-09-02T15:57:11;3.03;;;1.30;;
13708;SDS011;54933;51.908;7.730;2022-09-02T15:59:38;3.80;;;1.00;;
13708;SDS011;54933;51.908;7.730;2022-09-02T16:02:04;7.10;;;1.67;;
13708;SDS011;54933;51.908;7.730;2022-09-02T16:04:29;10.60;;;1.20;;
13708;SDS011;54933;51.908;7.730;2022-09-02T16:06:55;4.83;;;1.63;;
13708;SDS011;54933;51.908;7.730;2022-09-02T16:09:20;2.97;;;1.80;;
13708;SDS011;54933;51.908;7.730;2022-09-02T16:11:46;1.93;;;0.90;;
13708;SDS011;54933;51.908;7.730;2022-09-02T16:14:17;2.60;;;1.30;;
13708;SDS011;54933;51.908;7.730;2022-09-02T16:16:43;6.87;;;1.20;;
13708;SDS011;54933;51.908;7.730;2022-09-02T16:19:09;1.90;;;1.00;;
13708;SDS011;54933;51.908;7.730;2022-09-02T16:21:35;2.10;;;0.90;;
13708;SDS011;54933;51.908;7.730;2022-09-02T16:24:05;1.33;;;0.87;;
13708;SDS011;54933;51.908;7.730;2022-09-02T16:26:32;5.30;;;1.20;;
13708;SDS011;54933;51.908;7.730;2022-09-02T16:29:03;5.10;;;0.80;;
13708;SDS011;54933;51.908;7.730;2022-09-02T16:31:30;2.10;;;1.00;;
13708;SDS011;54933;51.908;7.730;2022-09-02T16:34:00;2.30;;;1.00;;
13708;SDS011;54933;51.908;7.730;2022-09-02T16:36:31;3.13;;;1.07;;
13708;SDS011;54933;51.908;7.730;2022-09-02T16:38:57;2.17;;;1.10;;
13708;SDS011;54933;51.908;7.730;2022-09-02T16:41:26;2.47;;;1.00;;
13708;SDS011;54933;51.908;7.730;2022-09-02T16:43:56;1.33;;;1.00;;
13708;SDS011;54933;51.908;7.730;2022-09-02T16:46:23;4.40;;;0.77;;
13708;SDS011;54933;51.908;7.730;2022-09-02T16:48:49;3.50;;;1.00;;
13708;SDS011;54933;51.908;7.730;2022-09-02T16:51:15;0.97;;;0.73;;
13708;SDS011;54933;51.908;7.730;2022-09-02T16:53:40;3.60;;;1.23;;
13708;SDS011;54933;51.908;7.730;2022-09-02T16:56:10;1.30;;;1.20;;
13708;SDS011;54933;51.908;7.730;2022-09-02T16:58:36;2.10;;;0.67;;
13708;SDS011;54933;51.908;7.730;2022-09-02T17:01:04;1.70;;;0.90;;